Onde está Santa Anna, Lisboa en Portugal?

 

Santa Anna está situado na região Lisboa em Portugal!

Buscar o nome de uma cidade:

Santa Anna dos Remedios, Santai Hu, Santa Julinana, Santa Magdalena, Santa Isabel

Aqui você vai encontrar a localização de Santa Anna em um mapa.
Para ver como ele atualmente parece, abaixo estão algumas fotos da região, com webcams online.
Você também pode encontrar a distância para as principais cidades da região e de cidades do resto do Portugal.

3 lugares nomeadas Santa Anna na Portugal.

Cidades do mundo
Cidades em Portugal que também são encontradas em outros países do mundo.


Onde está Santa Anna no mapa?




Webcams perto Santa Anna

Benavente › South: Garrocheira - Airport.


Benavente › South: Garrocheira - Airport - Dia
Actual
Benavente › South: Garrocheira - Airport - Actual

Benavente › North-East: Santarém - AIrport, METAR: BENAV 180005Z 36004KT 17/14 Q1015.


Benavente › North-East: Santarém - AIrport, METAR: BENAV 180005Z 36004KT 17/14 Q1015 - Dia
Actual
Benavente › North-East: Santarém - AIrport, METAR: BENAV 180005Z 36004KT 17/14 Q1015 - Actual

Lisbon › North: Ponte Vasco da Gama.


Lisbon › North: Ponte Vasco da Gama - Dia
Actual
Lisbon › North: Ponte Vasco da Gama - Actual

Webcams provided by webcams.travel


Distâncias

Onde está Santa Anna em relação a outros lugares?

Top 10 cidades em Lisboa e distância de Santa Anna.

Cidade#Populaçãokmmilhas
Lisbon15177983723
Amadora21788563421
Queluz31033983522
Loures4662302415
Rio de Mouro5546953723
Odivelas6546232918
São Domingos de Rana7467174327
Cascais8364364830
Alcabideche9333154528
Póvoa de Santa Iria10289001912

Top 10 cidades em Portugal e distância de Santa Anna.

Cidade # Populaçãokmmilhas
Lisbon15177983723
Porto2249630238148
Amadora31788563421
Braga4121393285177
Setúbal51171095836
Coimbra610658014288
Queluz71033983522
Funchal8980411003623
Vila Nova de Gaia970810237147
Loures10662302415



Info

Estatística e Geografia

Portugal é composta de 15299 cidades em 20 regiões.

A região de Lisboa tem 1032 cidades.

Santa Anna é o número 873 na região Lisboa.

A cidade é o número 12108 na Portugal.

Onde está Santa Anna, Lisboa en Portugal?